Time;durP1;ratioP1;P1;durP2;ratioP2;P2;SDS_P1;SDS_P2;PMS_P1;PMS_P2;Temp;Humidity;BMP_temperature;BMP_pressure;BME280_temperature;BME280_humidity;BME280_pressure;Samples;Min_cycle;Max_cycle;Signal;HPM_P1;HPM_P2
2021/01/17 00:00:49;;;;;;;1.53;1.43;;;-6.80;80.10;;;;;;4969199;28;20884;-76
2021/01/17 00:03:15;;;;;;;3.13;1.10;;;-6.90;80.60;;;;;;4950327;28;20225;-76
2021/01/17 00:05:42;;;;;;;1.83;0.93;;;-7.00;81.80;;;;;;4948695;28;20188;-76
2021/01/17 00:08:11;;;;;;;2.10;1.20;;;-7.00;82.40;;;;;;4961536;28;20257;-76
2021/01/17 00:10:38;;;;;;;4.53;1.97;;;-7.10;82.70;;;;;;4968872;28;20275;-76
2021/01/17 00:13:04;;;;;;;3.73;2.10;;;-7.10;82.80;;;;;;4952640;28;20289;-76
2021/01/17 00:15:30;;;;;;;6.93;1.43;;;-7.10;82.70;;;;;;4954350;28;20277;-76
2021/01/17 00:17:56;;;;;;;4.70;2.10;;;-7.10;83.00;;;;;;4969136;28;20264;-76
2021/01/17 00:20:24;;;;;;;1.17;1.00;;;-7.10;83.00;;;;;;4970403;28;20661;-76
2021/01/17 00:22:53;;;;;;;1.37;1.27;;;-7.20;82.40;;;;;;4970680;28;20188;-76
2021/01/17 00:25:20;;;;;;;1.30;1.23;;;-7.20;82.20;;;;;;4969649;28;21009;-76
2021/01/17 00:27:50;;;;;;;1.07;0.97;;;-7.20;82.20;;;;;;4967897;28;20702;-76
2021/01/17 00:30:17;;;;;;;2.10;1.80;;;-7.10;82.50;;;;;;4954153;28;20717;-75
2021/01/17 00:32:48;;;;;;;0.97;0.97;;;-7.10;82.40;;;;;;4951514;28;20260;-75
2021/01/17 00:35:15;;;;;;;1.20;1.10;;;-7.10;82.90;;;;;;4964354;28;20177;-75
2021/01/17 00:37:40;;;;;;;3.00;1.30;;;-7.10;82.90;;;;;;4955916;28;20190;-76
2021/01/17 00:40:07;;;;;;;1.93;1.83;;;-7.10;82.80;;;;;;4970749;28;20188;-76
2021/01/17 00:42:33;;;;;;;1.07;0.83;;;-7.10;83.10;;;;;;4960168;28;20643;-76
2021/01/17 00:44:58;;;;;;;1.30;1.20;;;-7.20;83.20;;;;;;4936515;28;20194;-76
2021/01/17 00:47:24;;;;;;;3.13;1.57;;;-7.20;83.20;;;;;;4958328;28;20189;-76
2021/01/17 00:49:50;;;;;;;4.47;1.10;;;-7.10;82.80;;;;;;4968396;28;20960;-76
2021/01/17 00:52:17;;;;;;;2.60;2.00;;;-7.10;82.40;;;;;;4967372;28;20661;-76
2021/01/17 00:54:42;;;;;;;1.87;1.27;;;-7.10;82.40;;;;;;4942895;29;20612;-76
2021/01/17 00:57:08;;;;;;;1.37;1.27;;;-7.10;82.70;;;;;;4965125;28;20277;-75
2021/01/17 00:59:34;;;;;;;1.80;1.73;;;-7.10;82.80;;;;;;4964877;28;20195;-76
2021/01/17 01:02:00;;;;;;;1.03;1.00;;;-7.10;82.80;;;;;;4964548;28;20599;-75
2021/01/17 01:04:25;;;;;;;0.67;0.67;;;-7.00;82.40;;;;;;4954215;28;20200;-76
2021/01/17 01:06:51;;;;;;;0.70;0.70;;;-7.00;82.10;;;;;;4941682;29;20674;-76
2021/01/17 01:09:18;;;;;;;1.27;1.17;;;-7.00;81.90;;;;;;4965539;28;20191;-75
2021/01/17 01:11:44;;;;;;;2.20;1.63;;;-7.10;82.00;;;;;;4969038;28;20203;-75
2021/01/17 01:14:10;;;;;;;1.60;0.67;;;-7.10;82.10;;;;;;4964667;28;20242;-76
2021/01/17 01:16:35;;;;;;;1.47;0.97;;;-7.10;82.00;;;;;;4961580;28;20570;-76
2021/01/17 01:19:02;;;;;;;1.57;1.47;;;-7.10;81.80;;;;;;4973451;28;20182;-76
2021/01/17 01:21:33;;;;;;;1.13;1.13;;;-7.10;81.90;;;;;;4952868;28;20281;-76
2021/01/17 01:24:00;;;;;;;1.10;1.00;;;-7.10;81.70;;;;;;4969466;28;20667;-78
2021/01/17 01:26:26;;;;;;;1.50;1.40;;;-7.10;81.40;;;;;;4970342;28;20208;-76
2021/01/17 01:28:54;;;;;;;1.43;1.27;;;-7.10;81.20;;;;;;4970000;28;20208;-75
2021/01/17 01:31:22;;;;;;;0.80;0.80;;;-7.10;81.10;;;;;;4970669;28;20235;-75
2021/01/17 01:33:48;;;;;;;1.33;1.30;;;-7.10;81.00;;;;;;4969274;28;20471;-77
2021/01/17 01:36:44;;;;;;;4.43;1.00;;;-7.10;80.70;;;;;;4935645;29;20729;-77
2021/01/17 01:39:11;;;;;;;1.63;1.17;;;-7.10;80.70;;;;;;4873144;29;20248;-75
2021/01/17 01:41:39;;;;;;;1.27;0.90;;;-7.10;80.60;;;;;;4905049;29;20591;-75
2021/01/17 01:44:07;;;;;;;0.40;0.40;;;-7.20;80.40;;;;;;4897165;29;20198;-75
2021/01/17 01:46:36;;;;;;;2.37;0.80;;;-7.10;80.30;;;;;;4892185;29;20191;-75
2021/01/17 01:49:02;;;;;;;1.20;1.20;;;-7.10;80.20;;;;;;4891924;29;20278;-77
2021/01/17 01:51:28;;;;;;;0.80;0.80;;;-7.10;80.10;;;;;;4894641;29;20314;-75
2021/01/17 01:53:57;;;;;;;0.37;0.37;;;-7.10;79.90;;;;;;4894990;29;20211;-76
2021/01/17 01:56:24;;;;;;;1.27;1.10;;;-7.10;79.70;;;;;;4915520;29;20207;-75
2021/01/17 01:58:52;;;;;;;1.07;1.07;;;-7.10;79.80;;;;;;4904526;29;20192;-75
2021/01/17 02:01:18;;;;;;;1.80;0.83;;;-7.10;79.90;;;;;;4901353;29;20215;-75
2021/01/17 02:03:47;;;;;;;2.07;1.83;;;-7.10;79.90;;;;;;4908106;29;20198;-75
2021/01/17 02:06:21;;;;;;;1.60;1.50;;;-7.10;79.90;;;;;;4891868;29;20269;-76
2021/01/17 02:08:56;;;;;;;1.77;1.53;;;-7.10;80.00;;;;;;4888298;29;20200;-76
2021/01/17 02:12:00;;;;;;;1.40;0.63;;;-7.10;80.10;;;;;;4901400;29;20201;-76
2021/01/17 02:15:02;;;;;;;1.00;0.97;;;-7.20;80.00;;;;;;4900284;28;20198;-76
2021/01/17 02:17:29;;;;;;;0.97;0.97;;;-7.10;80.00;;;;;;4891837;29;20202;-76
2021/01/17 02:20:11;;;;;;;0.97;0.97;;;-7.10;80.00;;;;;;4903763;29;20196;-77
2021/01/17 02:23:00;;;;;;;2.73;0.73;;;-7.20;80.10;;;;;;4905210;29;20210;-76
2021/01/17 02:25:28;;;;;;;1.50;1.37;;;-7.20;80.10;;;;;;4906000;29;20215;-75
2021/01/17 02:27:57;;;;;;;1.53;0.80;;;-7.20;80.20;;;;;;4909385;29;20236;-75
2021/01/17 02:30:25;;;;;;;5.13;1.47;;;-7.20;80.30;;;;;;4909634;29;20272;-75
2021/01/17 02:33:06;;;;;;;1.57;0.67;;;-7.20;80.50;;;;;;4909278;29;20775;-75
2021/01/17 02:35:34;;;;;;;0.80;0.80;;;-7.30;80.60;;;;;;4889991;29;20202;-75
2021/01/17 02:38:37;;;;;;;1.33;0.43;;;-7.30;81.00;;;;;;4893617;29;20270;-75
2021/01/17 02:41:44;;;;;;;0.90;0.80;;;-7.30;81.40;;;;;;4891936;29;20222;-75
2021/01/17 02:44:11;;;;;;;1.47;1.47;;;-7.30;81.50;;;;;;4853161;29;20762;-75
2021/01/17 02:46:36;;;;;;;1.23;1.23;;;-7.40;81.90;;;;;;4852739;29;20654;-78
2021/01/17 02:49:02;;;;;;;1.77;1.50;;;-7.40;81.90;;;;;;4853366;29;20197;-76
2021/01/17 02:51:29;;;;;;;0.53;0.53;;;-7.40;82.20;;;;;;4852924;29;20215;-75
2021/01/17 02:54:03;;;;;;;4.57;1.20;;;-7.50;82.50;;;;;;4865787;29;20213;-75
2021/01/17 02:56:32;;;;;;;1.43;1.30;;;-7.50;82.80;;;;;;4890062;29;20248;-75
2021/01/17 02:58:59;;;;;;;2.37;1.07;;;-7.40;82.80;;;;;;4873716;29;21879;-76
2021/01/17 03:01:29;;;;;;;1.27;1.27;;;-7.40;82.70;;;;;;4889567;29;20785;-75
2021/01/17 03:04:01;;;;;;;2.33;1.60;;;-7.40;82.60;;;;;;4890395;29;20635;-75
2021/01/17 03:06:28;;;;;;;1.63;1.10;;;-7.40;82.40;;;;;;4894768;29;20197;-75
2021/01/17 03:08:55;;;;;;;1.30;1.30;;;-7.40;82.20;;;;;;4882358;29;20226;-75
2021/01/17 03:11:22;;;;;;;2.00;1.27;;;-7.40;81.90;;;;;;4888945;29;20751;-77
2021/01/17 03:13:50;;;;;;;3.23;1.17;;;-7.40;81.90;;;;;;4890264;29;20608;-75
2021/01/17 03:16:15;;;;;;;0.57;0.50;;;-7.50;81.70;;;;;;4873025;29;20281;-75
2021/01/17 03:18:41;;;;;;;1.13;1.13;;;-7.50;81.60;;;;;;4890165;29;20264;-75
2021/01/17 03:21:07;;;;;;;1.27;1.20;;;-7.50;81.30;;;;;;4918413;28;20202;-75
2021/01/17 03:23:32;;;;;;;0.87;0.83;;;-7.50;81.10;;;;;;4968646;28;20568;-75
2021/01/17 03:25:58;;;;;;;1.43;1.33;;;-7.50;81.10;;;;;;4968441;28;20743;-75
2021/01/17 03:28:24;;;;;;;3.27;1.20;;;-7.50;81.00;;;;;;4957314;28;20201;-76
2021/01/17 03:30:50;;;;;;;1.33;0.80;;;-7.40;81.00;;;;;;4968377;28;20588;-76
2021/01/17 03:33:15;;;;;;;1.57;1.47;;;-7.50;81.00;;;;;;4967738;28;20253;-75
2021/01/17 03:35:41;;;;;;;1.83;1.13;;;-7.40;80.90;;;;;;4969029;28;20648;-76
2021/01/17 03:38:07;;;;;;;1.27;0.87;;;-7.40;80.90;;;;;;4968735;28;20178;-76
2021/01/17 03:40:32;;;;;;;2.10;1.63;;;-7.40;80.90;;;;;;4968909;28;20266;-75
2021/01/17 03:42:58;;;;;;;2.63;1.43;;;-7.30;80.80;;;;;;4969259;28;20188;-76
2021/01/17 03:45:24;;;;;;;0.83;0.83;;;-7.40;80.70;;;;;;4967039;28;20299;-76
2021/01/17 03:47:49;;;;;;;2.20;1.17;;;-7.30;80.60;;;;;;4968396;28;20193;-76
2021/01/17 03:50:15;;;;;;;1.90;1.40;;;-7.30;80.60;;;;;;4968858;28;20537;-76
2021/01/17 03:52:41;;;;;;;1.43;0.90;;;-7.30;80.50;;;;;;4968570;28;20205;-76
2021/01/17 03:55:07;;;;;;;0.90;0.90;;;-7.20;80.40;;;;;;4968208;28;20189;-76
2021/01/17 03:57:33;;;;;;;1.40;1.30;;;-7.20;80.30;;;;;;4961856;28;20604;-76
2021/01/17 03:59:59;;;;;;;3.70;1.00;;;-7.20;80.20;;;;;;4968075;28;20184;-75
2021/01/17 04:02:24;;;;;;;2.50;0.90;;;-7.10;80.00;;;;;;4968164;28;20240;-76
2021/01/17 04:04:50;;;;;;;1.00;1.00;;;-7.10;79.80;;;;;;4968126;28;20193;-76
2021/01/17 04:07:16;;;;;;;5.50;1.37;;;-7.10;79.70;;;;;;4950169;28;20205;-76
2021/01/17 04:09:41;;;;;;;1.07;1.07;;;-7.10;79.70;;;;;;4955483;28;20603;-76
2021/01/17 04:12:07;;;;;;;0.67;0.67;;;-7.00;79.50;;;;;;4963808;28;20245;-76
2021/01/17 04:14:33;;;;;;;1.77;0.90;;;-7.00;79.40;;;;;;4968277;28;20659;-76
2021/01/17 04:16:58;;;;;;;6.87;1.93;;;-6.90;79.30;;;;;;4958908;28;20234;-76
2021/01/17 04:19:25;;;;;;;4.63;1.27;;;-6.90;79.10;;;;;;4966950;28;20278;-76
2021/01/17 04:21:50;;;;;;;1.10;1.00;;;-6.90;79.00;;;;;;4967479;28;20199;-76
2021/01/17 04:24:16;;;;;;;0.70;0.70;;;-6.90;78.40;;;;;;4968363;28;20189;-76
2021/01/17 04:26:42;;;;;;;1.57;1.27;;;-6.90;78.30;;;;;;4968486;28;20260;-76
2021/01/17 04:29:07;;;;;;;2.20;1.83;;;-6.80;78.20;;;;;;4968373;28;20653;-75
2021/01/17 04:31:43;;;;;;;1.13;1.13;;;-6.80;78.10;;;;;;4968351;28;20205;-75
2021/01/17 04:34:10;;;;;;;1.97;1.87;;;-6.80;77.80;;;;;;4968376;28;20623;-75
2021/01/17 04:36:36;;;;;;;3.67;1.23;;;-6.80;78.00;;;;;;4968877;28;20190;-75
2021/01/17 04:39:04;;;;;;;0.90;0.90;;;-6.80;78.00;;;;;;4954448;28;20956;-76
2021/01/17 04:41:33;;;;;;;1.10;1.10;;;-6.80;77.80;;;;;;4971538;28;20207;-76
2021/01/17 04:44:01;;;;;;;0.57;0.57;;;-6.80;77.80;;;;;;4971567;28;20708;-76
2021/01/17 04:46:28;;;;;;;1.43;0.50;;;-6.80;77.60;;;;;;4970298;28;20200;-76
2021/01/17 04:49:00;;;;;;;2.63;1.23;;;-6.80;77.80;;;;;;4971533;28;20691;-76
2021/01/17 04:51:28;;;;;;;0.67;0.67;;;-6.80;77.70;;;;;;4969229;28;20849;-76
2021/01/17 04:53:54;;;;;;;1.63;1.53;;;-6.80;77.80;;;;;;4954025;28;20183;-76
2021/01/17 04:56:27;;;;;;;1.80;1.10;;;-6.70;77.80;;;;;;4969560;28;20633;-76
2021/01/17 04:59:13;;;;;;;1.77;1.77;;;-6.60;77.70;;;;;;4953499;28;20183;-76
2021/01/17 05:01:48;;;;;;;2.73;1.93;;;-6.60;77.60;;;;;;4970819;28;20268;-76
2021/01/17 05:04:36;;;;;;;1.60;1.50;;;-6.60;77.50;;;;;;4955658;28;20187;-76
2021/01/17 05:07:13;;;;;;;6.43;1.20;;;-6.60;77.50;;;;;;4957681;28;20191;-76
2021/01/17 05:09:44;;;;;;;1.40;1.40;;;-6.60;77.50;;;;;;4970972;28;20524;-76
2021/01/17 05:12:15;;;;;;;2.53;2.13;;;-6.50;77.30;;;;;;4970473;28;20198;-76
2021/01/17 05:14:54;;;;;;;1.17;1.10;;;-6.60;77.20;;;;;;4961238;28;20190;-76
2021/01/17 05:17:25;;;;;;;1.53;1.43;;;-6.60;77.20;;;;;;4953168;28;20192;-76
2021/01/17 05:19:51;;;;;;;2.13;1.77;;;-6.60;77.50;;;;;;4970812;28;20177;-76
2021/01/17 05:22:20;;;;;;;3.97;2.27;;;-6.60;77.50;;;;;;4969263;28;20384;-75
2021/01/17 05:24:52;;;;;;;1.60;1.53;;;-6.70;77.30;;;;;;4952813;28;20673;-76
2021/01/17 05:27:18;;;;;;;3.83;2.03;;;-6.70;76.80;;;;;;4969930;28;20663;-76
2021/01/17 05:29:44;;;;;;;1.70;1.57;;;-6.80;76.80;;;;;;4953626;28;20240;-76
2021/01/17 05:32:11;;;;;;;0.93;0.93;;;-6.80;77.10;;;;;;4969511;28;20294;-76
2021/01/17 05:34:39;;;;;;;0.90;0.90;;;-6.80;77.10;;;;;;4963410;28;20181;-76
2021/01/17 05:37:11;;;;;;;5.90;1.83;;;-6.90;77.10;;;;;;4969772;28;20190;-76
2021/01/17 05:39:53;;;;;;;1.03;0.90;;;-6.90;77.20;;;;;;4951159;28;20189;-75
2021/01/17 05:42:43;;;;;;;1.27;0.80;;;-6.90;77.00;;;;;;4970422;28;20190;-76
2021/01/17 05:45:23;;;;;;;1.17;1.17;;;-6.90;76.90;;;;;;4894425;29;20244;-76
2021/01/17 05:48:00;;;;;;;2.53;1.97;;;-6.90;76.90;;;;;;4910003;29;20206;-76
2021/01/17 05:50:28;;;;;;;0.93;0.93;;;-6.90;76.50;;;;;;4907370;29;20206;-76
2021/01/17 05:52:55;;;;;;;0.97;0.77;;;-6.90;76.50;;;;;;4908527;29;20208;-76
2021/01/17 05:55:41;;;;;;;3.63;0.80;;;-6.90;76.50;;;;;;4910404;29;20237;-76
2021/01/17 05:58:23;;;;;;;5.13;1.80;;;-6.90;76.20;;;;;;4909920;29;20204;-76
2021/01/17 06:00:51;;;;;;;1.13;1.13;;;-6.80;76.20;;;;;;4892944;29;20188;-76
2021/01/17 06:03:20;;;;;;;1.10;1.03;;;-6.80;76.10;;;;;;4898795;29;20211;-76
2021/01/17 06:05:49;;;;;;;1.93;1.73;;;-6.80;76.20;;;;;;4908959;29;20192;-76
2021/01/17 06:08:19;;;;;;;2.73;1.30;;;-6.80;76.10;;;;;;4892540;29;20200;-76
2021/01/17 06:10:48;;;;;;;2.00;1.87;;;-6.70;76.20;;;;;;4909654;29;20197;-76
2021/01/17 06:13:21;;;;;;;0.73;0.63;;;-6.70;76.20;;;;;;4909717;29;21010;-76
2021/01/17 06:15:46;;;;;;;1.47;1.37;;;-6.70;76.10;;;;;;4894472;29;20324;-76
2021/01/17 06:18:18;;;;;;;0.40;0.40;;;-6.70;76.20;;;;;;4907511;29;20192;-76
2021/01/17 06:20:45;;;;;;;1.20;1.20;;;-6.70;76.10;;;;;;4910062;29;20179;-76
2021/01/17 06:23:11;;;;;;;1.30;0.97;;;-6.70;76.20;;;;;;4961487;28;20952;-76
2021/01/17 06:25:36;;;;;;;0.77;0.77;;;-6.70;76.10;;;;;;4969808;28;20193;-76
2021/01/17 06:28:07;;;;;;;1.13;1.00;;;-6.70;76.00;;;;;;4970126;28;20193;-76
2021/01/17 06:30:33;;;;;;;1.23;1.03;;;-6.70;76.10;;;;;;4951944;28;20738;-76
2021/01/17 06:32:59;;;;;;;1.00;0.97;;;-6.60;76.30;;;;;;4963465;28;20212;-76
2021/01/17 06:35:37;;;;;;;1.27;1.10;;;-6.50;76.40;;;;;;4954377;28;20186;-76
2021/01/17 06:38:19;;;;;;;1.60;1.50;;;-6.40;76.60;;;;;;4970138;28;20210;-76
2021/01/17 06:40:47;;;;;;;2.63;1.60;;;-6.30;76.70;;;;;;4952037;28;20258;-76
2021/01/17 06:43:14;;;;;;;1.60;1.20;;;-6.10;76.50;;;;;;4968648;28;20265;-76
2021/01/17 06:45:45;;;;;;;1.57;1.47;;;-6.00;76.60;;;;;;4939882;29;20302;-76
2021/01/17 06:48:24;;;;;;;3.50;2.30;;;-5.70;76.70;;;;;;4942649;28;20577;-77
2021/01/17 06:50:50;;;;;;;5.53;0.90;;;-5.40;76.30;;;;;;4969114;28;20185;-77
2021/01/17 06:53:26;;;;;;;3.80;1.10;;;-5.10;75.90;;;;;;4940238;29;20960;-75
2021/01/17 06:56:15;;;;;;;2.30;2.20;;;-4.80;75.10;;;;;;4959754;28;20181;-76
2021/01/17 06:58:44;;;;;;;4.00;2.07;;;-4.40;74.60;;;;;;4950766;28;20186;-77
2021/01/17 07:01:10;;;;;;;2.37;2.27;;;-4.00;74.20;;;;;;4968822;28;20174;-76
2021/01/17 07:03:56;;;;;;;1.87;1.23;;;-3.70;73.20;;;;;;4951695;28;20177;-77
2021/01/17 07:07:00;;;;;;;3.70;2.50;;;-3.40;72.60;;;;;;4968182;28;20618;-77
2021/01/17 07:09:40;;;;;;;1.47;1.40;;;-3.20;71.80;;;;;;4965907;28;20192;-77
2021/01/17 07:12:19;;;;;;;4.20;2.20;;;-3.10;71.90;;;;;;4962292;28;20226;-75
2021/01/17 07:15:02;;;;;;;4.40;2.50;;;-2.90;70.90;;;;;;4966720;28;20171;-77
2021/01/17 07:17:32;;;;;;;2.93;2.13;;;-2.70;71.10;;;;;;4968369;28;20780;-78
2021/01/17 07:20:04;;;;;;;1.80;1.70;;;-2.40;70.90;;;;;;4957796;28;20568;-77
2021/01/17 07:22:31;;;;;;;8.03;3.43;;;-1.90;70.60;;;;;;4967812;28;20713;-77
2021/01/17 07:24:59;;;;;;;4.23;2.87;;;-1.50;69.60;;;;;;4946638;28;20595;-77
2021/01/17 07:27:53;;;;;;;3.37;2.93;;;-1.00;68.20;;;;;;4950421;28;20228;-77
2021/01/17 07:30:21;;;;;;;3.10;2.73;;;-0.60;66.50;;;;;;4966382;28;20229;-77
2021/01/17 07:32:55;;;;;;;6.70;3.90;;;-0.60;65.40;;;;;;4967861;28;20609;-75
2021/01/17 07:35:26;;;;;;;4.43;3.73;;;-0.70;64.80;;;;;;4950640;28;20248;-76
2021/01/17 07:37:56;;;;;;;7.23;3.33;;;-0.90;64.60;;;;;;4967652;28;20969;-76
2021/01/17 07:43:09;;;;;;;5.40;4.43;;;-1.60;64.90;;;;;;4966967;28;20689;-77
2021/01/17 07:45:38;;;;;;;6.17;4.30;;;-2.10;65.40;;;;;;4967756;28;20322;-77
2021/01/17 07:48:07;;;;;;;13.40;6.20;;;-2.40;66.30;;;;;;4967607;28;20186;-76
2021/01/17 07:50:39;;;;;;;6.83;5.87;;;-2.30;67.30;;;;;;4967720;28;20547;-76
2021/01/17 07:53:12;;;;;;;12.73;6.13;;;-2.20;67.60;;;;;;4966856;28;20221;-76
2021/01/17 07:55:40;;;;;;;6.33;5.73;;;-2.10;67.40;;;;;;4946240;28;20277;-76
2021/01/17 07:58:09;;;;;;;8.53;5.90;;;-2.00;66.90;;;;;;4965162;28;20190;-78
2021/01/17 08:00:38;;;;;;;5.07;4.40;;;-1.90;66.60;;;;;;4948474;28;20191;-78
2021/01/17 08:03:05;;;;;;;4.40;3.27;;;-2.00;66.10;;;;;;4970042;28;20570;-76
2021/01/17 08:05:54;;;;;;;9.40;3.73;;;-2.00;65.90;;;;;;4969742;28;20197;-79
2021/01/17 08:08:46;;;;;;;6.97;3.63;;;-1.90;66.70;;;;;;4968476;28;20183;-77
2021/01/17 08:11:38;;;;;;;3.50;3.20;;;-1.50;66.40;;;;;;4970499;28;20209;-77
2021/01/17 08:14:15;;;;;;;3.60;2.93;;;-0.90;65.30;;;;;;4965926;28;20291;-71
2021/01/17 08:17:01;;;;;;;3.03;2.17;;;-0.30;64.40;;;;;;4958025;28;20621;-74
2021/01/17 08:19:53;;;;;;;2.17;1.87;;;0.10;61.80;;;;;;4965304;28;20182;-77
2021/01/17 08:22:22;;;;;;;2.17;1.90;;;0.60;61.60;;;;;;4942435;28;20281;-76
2021/01/17 08:24:51;;;;;;;1.93;1.83;;;1.20;60.80;;;;;;4959162;28;20261;-76
2021/01/17 08:27:37;;;;;;;4.93;2.70;;;1.40;58.90;;;;;;4941548;28;20190;-78
2021/01/17 08:30:03;;;;;;;2.80;1.90;;;1.50;58.20;;;;;;4970365;28;20280;-74
2021/01/17 08:32:49;;;;;;;2.27;1.63;;;1.50;57.30;;;;;;4963395;28;20241;-77
2021/01/17 08:35:20;;;;;;;2.00;1.90;;;1.10;57.60;;;;;;4884928;29;20205;-75
2021/01/17 08:38:08;;;;;;;2.07;1.97;;;1.30;58.50;;;;;;4891888;29;20208;-74
2021/01/17 08:40:34;;;;;;;1.83;1.70;;;1.70;58.10;;;;;;4891407;29;20200;-74
2021/01/17 08:43:02;;;;;;;1.80;1.80;;;1.60;56.80;;;;;;4884363;29;20188;-74
2021/01/17 08:45:28;;;;;;;1.80;1.70;;;1.10;57.10;;;;;;4893567;29;20196;-76
2021/01/17 08:47:56;;;;;;;2.17;2.00;;;0.50;57.20;;;;;;4908650;29;20192;-73
2021/01/17 08:50:37;;;;;;;1.73;1.43;;;0.10;58.30;;;;;;4906533;29;20299;-73
2021/01/17 08:53:24;;;;;;;1.47;1.47;;;-0.20;59.20;;;;;;4880588;29;20714;-74
2021/01/17 08:55:52;;;;;;;1.90;1.80;;;-0.50;59.70;;;;;;4891022;29;20193;-76
2021/01/17 08:58:37;;;;;;;2.83;2.20;;;-0.70;60.40;;;;;;4891191;29;20189;-75
2021/01/17 09:01:08;;;;;;;3.93;2.10;;;-0.90;60.80;;;;;;4890733;29;20197;-76
2021/01/17 09:03:36;;;;;;;1.57;1.57;;;-1.00;61.30;;;;;;4895202;29;20213;-76
2021/01/17 09:06:22;;;;;;;2.70;2.00;;;-1.00;61.40;;;;;;4892868;29;20232;-76
2021/01/17 09:08:52;;;;;;;1.70;1.60;;;-1.00;61.50;;;;;;4902879;29;20255;-77
2021/01/17 09:11:24;;;;;;;2.53;2.27;;;-1.00;61.00;;;;;;4898179;29;20197;-76
2021/01/17 09:14:20;;;;;;;4.47;2.30;;;-1.10;61.10;;;;;;4957442;28;20655;-77
2021/01/17 09:16:58;;;;;;;4.33;2.80;;;-1.30;61.40;;;;;;4970723;28;20184;-81
2021/01/17 09:19:35;;;;;;;2.93;2.73;;;-1.40;62.00;;;;;;4953208;29;20186;-78
2021/01/17 09:22:04;;;;;;;5.13;2.37;;;-1.60;62.30;;;;;;4952538;28;20190;-79
2021/01/17 09:24:33;;;;;;;3.03;1.90;;;-1.60;62.60;;;;;;4952780;29;20178;-79
2021/01/17 09:27:01;;;;;;;3.60;2.23;;;-1.60;62.90;;;;;;4935557;29;20190;-79
2021/01/17 09:29:45;;;;;;;4.10;2.07;;;-1.40;63.10;;;;;;4952648;29;20261;-79
2021/01/17 09:32:15;;;;;;;2.53;2.33;;;-1.10;62.50;;;;;;4952474;29;20211;-79
2021/01/17 09:34:45;;;;;;;2.60;2.20;;;-0.80;62.60;;;;;;4952169;29;20203;-77
2021/01/17 09:37:14;;;;;;;1.57;1.47;;;-0.30;61.60;;;;;;4957042;28;20167;-79
2021/01/17 09:39:47;;;;;;;2.67;2.47;;;0.00;60.90;;;;;;4952500;28;20722;-78
2021/01/17 09:42:15;;;;;;;2.60;2.30;;;0.50;60.60;;;;;;4949833;28;20289;-77
2021/01/17 09:44:42;;;;;;;1.90;1.80;;;1.00;59.70;;;;;;4946884;28;20193;-78
2021/01/17 09:47:19;;;;;;;5.20;2.77;;;1.80;59.30;;;;;;4970620;28;20190;-83
2021/01/17 09:49:46;;;;;;;4.90;3.10;;;2.30;57.70;;;;;;4970357;28;20261;-79
2021/01/17 09:52:16;;;;;;;2.60;2.43;;;2.70;57.50;;;;;;4965238;28;20281;-85
2021/01/17 09:54:42;;;;;;;2.73;2.53;;;3.00;56.40;;;;;;4939357;29;20187;-74
2021/01/17 09:57:17;;;;;;;4.93;3.03;;;3.40;56.50;;;;;;4949287;28;20179;-78
2021/01/17 09:59:43;;;;;;;3.30;2.90;;;3.90;56.10;;;;;;4960188;28;20668;-75
2021/01/17 10:02:09;;;;;;;3.73;2.40;;;4.60;55.20;;;;;;4965624;28;20189;-76
2021/01/17 10:04:36;;;;;;;4.67;3.30;;;4.80;52.60;;;;;;4946120;29;20282;-74
2021/01/17 10:07:02;;;;;;;2.90;2.73;;;4.50;51.90;;;;;;4962218;28;20186;-74
2021/01/17 10:09:28;;;;;;;3.00;2.73;;;4.00;52.20;;;;;;4964318;28;20681;-74
2021/01/17 10:11:55;;;;;;;3.17;2.87;;;3.90;52.80;;;;;;4969700;28;20206;-76
2021/01/17 10:14:23;;;;;;;4.20;3.73;;;4.00;52.50;;;;;;4947767;29;20187;-77
2021/01/17 10:16:50;;;;;;;3.80;3.30;;;4.10;52.30;;;;;;4959515;28;20270;-77
2021/01/17 10:19:15;;;;;;;5.87;3.70;;;4.40;53.20;;;;;;4946961;28;20212;-77
2021/01/17 10:21:43;;;;;;;3.83;3.53;;;4.60;51.70;;;;;;4948966;28;20178;-75
2021/01/17 10:24:09;;;;;;;5.20;3.43;;;4.60;51.50;;;;;;4960903;28;20206;-76
2021/01/17 10:26:35;;;;;;;4.87;3.87;;;4.60;51.50;;;;;;4969146;28;20218;-76
2021/01/17 10:29:06;;;;;;;3.60;3.40;;;4.60;51.70;;;;;;4968656;28;20679;-77
2021/01/17 10:31:36;;;;;;;4.97;3.97;;;5.10;52.20;;;;;;4968810;28;20265;-77
2021/01/17 10:34:03;;;;;;;6.73;4.43;;;5.60;51.50;;;;;;4949160;28;20551;-76
2021/01/17 10:36:29;;;;;;;4.83;3.83;;;6.30;50.80;;;;;;4950156;28;20197;-77
2021/01/17 10:38:55;;;;;;;5.53;4.17;;;6.30;49.40;;;;;;4963180;28;20186;-75
2021/01/17 10:41:28;;;;;;;3.77;3.57;;;6.80;50.90;;;;;;4959023;28;20186;-74
2021/01/17 10:44:15;;;;;;;5.83;4.47;;;7.40;50.50;;;;;;4966331;28;20686;-74
2021/01/17 10:46:47;;;;;;;6.63;4.77;;;8.10;50.20;;;;;;4947459;28;20565;-77
2021/01/17 10:49:18;;;;;;;8.93;4.57;;;8.80;49.50;;;;;;4953941;28;20167;-75
2021/01/17 10:51:50;;;;;;;5.77;4.30;;;8.70;46.10;;;;;;4960031;28;20191;-75
2021/01/17 10:54:22;;;;;;;5.10;4.03;;;7.80;45.70;;;;;;4965364;28;20182;-75
2021/01/17 10:56:49;;;;;;;4.27;3.93;;;6.50;46.90;;;;;;4949470;28;20163;-76
2021/01/17 10:59:19;;;;;;;8.77;4.83;;;5.70;47.80;;;;;;4953596;28;20223;-76
2021/01/17 11:01:48;;;;;;;5.03;3.73;;;4.90;49.30;;;;;;4947917;29;20258;-76
2021/01/17 11:04:15;;;;;;;3.27;3.00;;;4.50;50.00;;;;;;4949091;28;20190;-74
2021/01/17 11:06:44;;;;;;;3.07;2.77;;;4.80;50.00;;;;;;4959786;28;20655;-74
2021/01/17 11:09:13;;;;;;;3.87;3.53;;;5.00;49.60;;;;;;4956500;28;20298;-70
2021/01/17 11:11:51;;;;;;;7.27;3.80;;;4.90;49.60;;;;;;4963739;28;20252;-76
2021/01/17 11:14:30;;;;;;;6.10;4.00;;;4.80;50.00;;;;;;4967506;28;20198;-76
2021/01/17 11:16:57;;;;;;;7.60;3.30;;;3.90;50.30;;;;;;4966741;28;20178;-75
2021/01/17 11:19:36;;;;;;;8.13;3.50;;;3.20;50.70;;;;;;4950675;28;20177;-78
2021/01/17 11:22:02;;;;;;;4.93;3.40;;;2.30;52.40;;;;;;4967174;28;20198;-76
2021/01/17 11:24:36;;;;;;;4.83;3.30;;;1.80;54.00;;;;;;4966706;28;20659;-73
2021/01/17 11:27:20;;;;;;;4.50;3.50;;;1.60;55.30;;;;;;4957905;28;20249;-76
2021/01/17 11:29:45;;;;;;;4.63;3.50;;;2.00;55.90;;;;;;4967211;28;20189;-76
2021/01/17 11:32:12;;;;;;;5.60;3.67;;;2.40;54.20;;;;;;4967491;28;20557;-76
2021/01/17 11:34:42;;;;;;;3.03;2.70;;;2.50;53.80;;;;;;4967226;28;20186;-75
2021/01/17 11:37:08;;;;;;;5.03;3.67;;;2.40;53.60;;;;;;4967196;28;20209;-74
2021/01/17 11:39:34;;;;;;;4.10;3.80;;;2.10;53.80;;;;;;4966557;28;20252;-75
2021/01/17 11:42:00;;;;;;;5.43;3.33;;;2.10;54.30;;;;;;4949489;28;20186;-74
2021/01/17 11:44:34;;;;;;;2.80;2.60;;;2.00;54.50;;;;;;4966359;28;20201;-73
2021/01/17 11:47:03;;;;;;;2.80;2.27;;;1.90;54.80;;;;;;4972676;28;20276;-74
2021/01/17 11:49:30;;;;;;;2.57;2.43;;;2.10;54.50;;;;;;4972736;28;20188;-74
2021/01/17 11:51:56;;;;;;;4.60;3.70;;;2.20;54.40;;;;;;4973269;28;20714;-75
2021/01/17 11:54:25;;;;;;;3.50;3.10;;;2.50;55.00;;;;;;4973150;28;20193;-75
2021/01/17 11:57:05;;;;;;;4.77;2.07;;;3.10;53.90;;;;;;4972366;28;20178;-75
2021/01/17 11:59:33;;;;;;;3.40;2.67;;;3.30;52.50;;;;;;4973692;28;20802;-75
2021/01/17 12:02:19;;;;;;;5.20;3.53;;;3.50;52.70;;;;;;4972759;28;20186;-75
2021/01/17 12:04:45;;;;;;;7.03;4.27;;;4.20;52.80;;;;;;4971527;28;20213;-74
2021/01/17 12:07:12;;;;;;;4.37;4.03;;;4.70;52.60;;;;;;4972888;28;20193;-74
2021/01/17 12:09:38;;;;;;;4.40;3.97;;;4.90;52.20;;;;;;4960735;28;20189;-74
2021/01/17 12:12:11;;;;;;;5.80;3.63;;;5.10;50.90;;;;;;4954166;28;20252;-74
2021/01/17 12:14:38;;;;;;;3.73;3.43;;;5.10;50.60;;;;;;4966684;28;20308;-74
2021/01/17 12:17:05;;;;;;;4.03;3.53;;;4.30;50.50;;;;;;4952043;28;20217;-74
2021/01/17 12:19:31;;;;;;;4.60;4.20;;;3.40;51.70;;;;;;4973160;28;20245;-74
2021/01/17 12:21:58;;;;;;;4.97;3.40;;;2.60;53.40;;;;;;4971693;28;20265;-74
2021/01/17 12:24:24;;;;;;;3.33;3.03;;;2.10;54.40;;;;;;4951438;28;20193;-75
2021/01/17 12:26:52;;;;;;;7.27;4.33;;;1.70;55.30;;;;;;4950636;28;20190;-72
2021/01/17 12:29:18;;;;;;;4.27;3.60;;;1.40;56.00;;;;;;4972388;28;20205;-72
2021/01/17 12:31:45;;;;;;;5.20;4.03;;;1.50;56.80;;;;;;4953786;28;21088;-75
2021/01/17 12:34:11;;;;;;;3.47;3.13;;;1.90;56.60;;;;;;4971086;28;20190;-76
2021/01/17 12:36:39;;;;;;;4.10;3.70;;;2.30;56.50;;;;;;4961012;28;20191;-75
2021/01/17 12:39:06;;;;;;;4.33;3.30;;;2.70;56.20;;;;;;4969380;28;20182;-75
2021/01/17 12:41:34;;;;;;;4.80;3.70;;;3.10;55.60;;;;;;4968000;28;20211;-75
2021/01/17 12:44:02;;;;;;;4.30;3.60;;;3.30;54.60;;;;;;4951191;28;21030;-77
2021/01/17 12:46:28;;;;;;;3.47;3.17;;;3.10;54.90;;;;;;4961089;28;20179;-73
2021/01/17 12:48:55;;;;;;;5.93;3.53;;;2.90;55.20;;;;;;4946688;28;20256;-74
2021/01/17 12:51:21;;;;;;;5.90;4.23;;;2.20;55.80;;;;;;4949738;28;20298;-77
2021/01/17 12:53:48;;;;;;;5.27;3.63;;;1.70;56.90;;;;;;4971170;28;20186;-76
2021/01/17 12:56:15;;;;;;;11.13;4.23;;;1.20;57.90;;;;;;4968347;28;20548;-76
2021/01/17 12:58:42;;;;;;;3.17;2.87;;;0.90;58.70;;;;;;4966798;28;20571;-75
2021/01/17 13:01:08;;;;;;;5.43;3.03;;;0.60;59.40;;;;;;4965631;28;20236;-73
2021/01/17 13:03:35;;;;;;;3.87;3.17;;;0.30;59.60;;;;;;4965761;28;20186;-73
2021/01/17 13:06:01;;;;;;;3.37;3.07;;;0.00;60.10;;;;;;4958967;28;20183;-71
2021/01/17 13:08:27;;;;;;;3.87;3.40;;;-0.20;60.60;;;;;;4949875;29;20186;-75
2021/01/17 13:10:53;;;;;;;4.57;3.53;;;-0.40;61.20;;;;;;4963792;28;20347;-76